createdAt,value
2023-02-02T00:02:00.066Z,5.44
2023-02-02T00:04:33.038Z,5.29
2023-02-02T00:07:04.096Z,5.19
2023-02-02T00:09:34.281Z,5.14
2023-02-02T00:12:03.501Z,5.12
2023-02-02T00:14:32.806Z,5.14
2023-02-02T00:17:01.660Z,5.15
2023-02-02T00:19:32.195Z,5.00
2023-02-02T00:22:01.138Z,4.86
2023-02-02T00:24:30.119Z,4.77
2023-02-02T00:27:00.579Z,4.67
2023-02-02T00:29:32.347Z,4.57
2023-02-02T00:32:01.133Z,4.53
2023-02-02T00:34:30.038Z,4.50
2023-02-02T00:36:59.187Z,4.45
2023-02-02T00:39:28.072Z,4.37
2023-02-02T00:41:57.516Z,4.28
2023-02-02T00:44:45.193Z,4.26
2023-02-02T00:47:13.968Z,4.29
2023-02-02T00:49:42.649Z,4.38
2023-02-02T00:52:11.682Z,4.43
2023-02-02T00:54:40.591Z,4.51
2023-02-02T00:57:13.789Z,4.56
2023-02-02T00:59:43.529Z,4.56
2023-02-02T01:02:13.518Z,4.52
2023-02-02T01:04:42.337Z,4.45
2023-02-02T01:07:11.327Z,4.46
2023-02-02T01:09:40.507Z,4.49
2023-02-02T01:12:10.170Z,4.43
2023-02-02T01:14:39.659Z,4.34
2023-02-02T01:17:08.572Z,4.24
2023-02-02T01:19:37.658Z,4.23
2023-02-02T01:22:07.219Z,4.27
2023-02-02T01:24:36.269Z,4.28
2023-02-02T01:27:07.611Z,4.26
2023-02-02T01:29:36.512Z,4.27
2023-02-02T01:32:05.730Z,4.42
2023-02-02T01:34:34.744Z,4.55
2023-02-02T01:37:03.605Z,4.62
2023-02-02T01:39:34.261Z,4.54
2023-02-02T01:42:03.994Z,4.55
2023-02-02T01:44:57.920Z,4.61
2023-02-02T01:47:30.614Z,4.65
2023-02-02T01:49:59.924Z,4.70
2023-02-02T01:52:31.765Z,4.67
2023-02-02T01:55:08.767Z,4.58
2023-02-02T01:57:44.033Z,4.48
2023-02-02T02:00:16.785Z,4.53
2023-02-02T02:02:48.787Z,4.52
2023-02-02T02:05:24.780Z,4.49
2023-02-02T02:08:01.948Z,4.48
2023-02-02T02:10:31.171Z,4.58
2023-02-02T02:13:00.288Z,4.69
2023-02-02T02:15:56.279Z,4.72
2023-02-02T02:18:48.718Z,4.62
2023-02-02T02:22:14.340Z,4.47
2023-02-02T02:25:48.272Z,4.35
2023-02-02T02:28:17.123Z,4.30
2023-02-02T02:31:01.232Z,4.36
2023-02-02T02:33:45.250Z,4.38
2023-02-02T02:36:39.917Z,4.39
2023-02-02T02:39:27.077Z,4.46
2023-02-02T02:42:01.437Z,4.52
2023-02-02T02:44:33.001Z,4.53
2023-02-02T02:47:03.818Z,4.55
2023-02-02T02:49:32.802Z,4.51
2023-02-02T02:52:01.728Z,4.48
2023-02-02T02:54:45.912Z,4.45
2023-02-02T02:57:29.989Z,4.33
2023-02-02T03:00:38.811Z,4.18
2023-02-02T03:03:34.968Z,4.00
2023-02-02T03:06:24.206Z,3.90
2023-02-02T03:09:08.501Z,3.82
2023-02-02T03:11:38.220Z,3.77
2023-02-02T03:14:10.163Z,3.73
2023-02-02T03:16:39.371Z,3.76
2023-02-02T03:19:09.787Z,3.80
2023-02-02T03:21:38.670Z,3.82
2023-02-02T03:24:08.125Z,3.83
2023-02-02T03:26:38.597Z,3.80
2023-02-02T03:29:11.889Z,3.78
2023-02-02T03:31:40.881Z,3.74
2023-02-02T03:34:10.700Z,3.78
2023-02-02T03:36:40.110Z,3.76
2023-02-02T03:39:08.847Z,3.72
2023-02-02T03:41:37.731Z,3.77
2023-02-02T03:44:06.522Z,3.84
2023-02-02T03:46:35.827Z,3.89
2023-02-02T03:49:04.455Z,3.87
2023-02-02T03:51:34.098Z,3.81
2023-02-02T03:54:02.809Z,3.73
2023-02-02T03:56:31.564Z,3.68
2023-02-02T03:59:00.657Z,3.61
2023-02-02T04:01:30.916Z,3.54
2023-02-02T04:04:00.321Z,3.58
2023-02-02T04:06:30.400Z,3.60
2023-02-02T04:08:58.887Z,3.49
2023-02-02T04:11:27.772Z,3.42
2023-02-02T04:13:56.560Z,3.30
2023-02-02T04:16:25.469Z,3.25
2023-02-02T04:18:54.195Z,3.21
2023-02-02T04:21:22.953Z,3.17
2023-02-02T04:23:51.913Z,3.14
2023-02-02T04:26:21.491Z,3.09
2023-02-02T04:28:50.655Z,3.12
2023-02-02T04:31:20.018Z,3.15
2023-02-02T04:33:48.945Z,3.17
2023-02-02T04:36:17.789Z,3.16
2023-02-02T04:38:51.221Z,3.21
2023-02-02T04:41:21.614Z,3.29
2023-02-02T04:43:50.779Z,3.37
2023-02-02T04:46:19.757Z,3.38
2023-02-02T04:48:50.272Z,3.34
2023-02-02T04:51:19.300Z,3.33
2023-02-02T04:53:48.024Z,3.36
2023-02-02T04:56:19.284Z,3.41
2023-02-02T04:58:48.448Z,3.38
2023-02-02T05:01:20.225Z,3.22
2023-02-02T05:03:50.320Z,3.03
2023-02-02T05:06:20.154Z,2.99
2023-02-02T05:08:49.435Z,3.02
2023-02-02T05:11:22.993Z,3.02
2023-02-02T05:13:54.551Z,2.99
2023-02-02T05:16:25.894Z,2.91
2023-02-02T05:18:58.242Z,2.82
2023-02-02T05:21:27.144Z,2.78
2023-02-02T05:23:55.952Z,2.73
2023-02-02T05:26:28.175Z,2.70
2023-02-02T05:28:57.783Z,2.69
2023-02-02T05:31:26.693Z,2.70
2023-02-02T05:33:55.592Z,2.71
2023-02-02T05:36:24.366Z,2.69
2023-02-02T05:38:53.761Z,2.58
2023-02-02T05:41:22.521Z,2.43
2023-02-02T05:43:51.439Z,2.42
2023-02-02T05:46:20.861Z,2.42
2023-02-02T05:48:49.972Z,2.38
2023-02-02T05:51:36.271Z,2.30
2023-02-02T05:54:05.362Z,2.20
2023-02-02T05:56:34.047Z,2.23
2023-02-02T05:59:06.901Z,2.27
2023-02-02T06:01:36.511Z,2.21
2023-02-02T06:04:05.437Z,2.11
2023-02-02T06:06:36.250Z,2.02
2023-02-02T06:09:06.856Z,2.01
2023-02-02T06:11:36.859Z,1.98
2023-02-02T06:14:06.443Z,1.94
2023-02-02T06:16:35.706Z,1.87
2023-02-02T06:19:05.150Z,1.91
2023-02-02T06:21:34.217Z,1.96
2023-02-02T06:24:03.051Z,1.95
2023-02-02T06:26:32.011Z,1.93
2023-02-02T06:29:00.917Z,1.90
2023-02-02T06:31:30.007Z,1.96
2023-02-02T06:33:59.405Z,2.08
2023-02-02T06:36:28.604Z,2.12
2023-02-02T06:38:59.152Z,2.19
2023-02-02T06:41:28.492Z,2.30
2023-02-02T06:43:57.532Z,2.46
2023-02-02T06:46:26.325Z,2.59
2023-02-02T06:48:55.373Z,2.72
2023-02-02T06:51:24.920Z,2.81
2023-02-02T06:53:53.977Z,2.84
2023-02-02T06:56:23.461Z,2.94
2023-02-02T06:58:52.584Z,3.06
2023-02-02T07:01:22.005Z,3.12
2023-02-02T07:03:54.470Z,3.29
2023-02-02T07:06:27.163Z,3.48
2023-02-02T07:09:02.723Z,3.83
2023-02-02T07:11:35.351Z,4.36
2023-02-02T07:14:10.475Z,4.81
2023-02-02T07:16:39.327Z,5.47
2023-02-02T07:19:08.347Z,6.33
2023-02-02T07:21:37.428Z,7.13
2023-02-02T07:24:07.688Z,7.78
2023-02-02T07:26:37.089Z,8.60
2023-02-02T07:29:07.318Z,9.60
2023-02-02T07:31:37.045Z,10.22
2023-02-02T07:34:07.229Z,10.76
2023-02-02T07:36:36.870Z,11.48
2023-02-02T07:39:06.273Z,12.12
2023-02-02T07:41:37.451Z,12.70
2023-02-02T07:44:07.882Z,13.39
2023-02-02T07:46:36.637Z,14.06
2023-02-02T07:49:07.713Z,14.78
2023-02-02T07:51:38.243Z,15.08
2023-02-02T07:54:09.899Z,15.41
2023-02-02T07:56:40.479Z,16.07
2023-02-02T07:59:11.218Z,16.54
2023-02-02T08:01:40.170Z,16.84
2023-02-02T08:04:08.945Z,17.33
2023-02-02T08:06:40.102Z,17.83
2023-02-02T08:09:10.090Z,17.93
2023-02-02T08:11:39.821Z,18.37
2023-02-02T08:14:09.352Z,18.85
2023-02-02T08:16:38.974Z,19.19
2023-02-02T08:19:08.534Z,19.45
2023-02-02T08:21:38.564Z,20.11
2023-02-02T08:24:07.795Z,20.59
2023-02-02T08:26:36.984Z,21.27
2023-02-02T08:29:09.016Z,21.98
2023-02-02T08:31:43.751Z,22.54
2023-02-02T08:34:14.660Z,22.86
2023-02-02T08:36:43.405Z,23.20
2023-02-02T08:39:15.182Z,23.53
2023-02-02T08:41:45.696Z,23.81
2023-02-02T08:44:16.938Z,24.13
2023-02-02T08:46:46.314Z,24.43
2023-02-02T08:49:15.834Z,24.96
2023-02-02T08:51:44.765Z,25.48
2023-02-02T08:54:14.099Z,25.91
2023-02-02T08:56:43.729Z,26.10
2023-02-02T08:59:13.399Z,26.62
2023-02-02T09:01:42.270Z,27.00
2023-02-02T09:04:19.191Z,27.42
2023-02-02T09:06:48.845Z,27.75
2023-02-02T09:09:19.449Z,28.43
2023-02-02T09:11:49.923Z,28.65
2023-02-02T09:14:20.558Z,28.98
2023-02-02T09:16:49.683Z,29.26
2023-02-02T09:19:20.094Z,29.48
2023-02-02T09:21:53.438Z,29.87
2023-02-02T09:24:23.858Z,30.12
2023-02-02T09:26:53.942Z,30.35
2023-02-02T09:29:23.673Z,30.80
2023-02-02T09:31:53.326Z,30.99
2023-02-02T09:34:23.068Z,31.07
2023-02-02T09:36:52.581Z,31.44
2023-02-02T09:39:23.396Z,31.57
2023-02-02T09:42:01.924Z,31.78
2023-02-02T09:44:50.811Z,32.13
2023-02-02T09:47:23.077Z,32.08
2023-02-02T09:50:04.130Z,32.56
2023-02-02T09:52:36.348Z,32.84
2023-02-02T09:55:22.645Z,33.08
2023-02-02T09:57:58.846Z,32.91
2023-02-02T10:00:38.476Z,33.08
2023-02-02T10:03:16.185Z,33.44
2023-02-02T10:06:18.997Z,33.68
2023-02-02T10:08:56.800Z,33.97
2023-02-02T10:11:50.621Z,34.47
2023-02-02T10:14:29.558Z,34.68
2023-02-02T10:17:10.229Z,35.18
2023-02-02T10:19:42.067Z,35.54
2023-02-02T10:22:20.626Z,35.87
2023-02-02T10:24:52.966Z,35.93
2023-02-02T10:27:38.648Z,36.36
2023-02-02T10:30:45.914Z,36.33
2023-02-02T10:33:40.320Z,36.19
2023-02-02T10:36:20.040Z,36.25
2023-02-02T10:38:58.733Z,36.50
2023-02-02T10:41:46.217Z,36.87
2023-02-02T10:44:31.326Z,36.93
2023-02-02T10:47:04.595Z,37.11
2023-02-02T10:49:37.829Z,37.31
2023-02-02T10:52:12.580Z,37.53
2023-02-02T10:54:57.880Z,37.67
2023-02-02T10:57:49.367Z,38.23
2023-02-02T11:00:40.904Z,38.61
2023-02-02T11:03:12.730Z,38.65
2023-02-02T11:06:01.191Z,38.79
2023-02-02T11:08:38.675Z,38.86
2023-02-02T11:11:21.656Z,39.12
2023-02-02T11:14:03.557Z,39.23
2023-02-02T11:16:42.794Z,39.25
2023-02-02T11:19:20.092Z,39.72
2023-02-02T11:21:53.820Z,39.99
2023-02-02T11:24:41.134Z,39.85
2023-02-02T11:27:18.384Z,39.91
2023-02-02T11:29:51.155Z,39.75
2023-02-02T11:32:38.541Z,39.58
2023-02-02T11:35:07.531Z,39.35
2023-02-02T11:37:38.885Z,39.34
2023-02-02T11:40:53.215Z,39.41
2023-02-02T11:43:32.449Z,38.99
2023-02-02T11:46:08.514Z,38.85
2023-02-02T11:48:40.341Z,38.97
2023-02-02T11:51:26.666Z,39.00
2023-02-02T11:54:01.740Z,39.47
2023-02-02T11:56:31.063Z,40.14
2023-02-02T11:59:04.365Z,40.04
2023-02-02T12:01:40.574Z,39.87
2023-02-02T12:04:20.025Z,39.81
2023-02-02T12:06:49.272Z,39.95
2023-02-02T12:09:23.331Z,39.74
2023-02-02T12:12:06.024Z,39.46
2023-02-02T12:14:35.278Z,39.37
2023-02-02T12:17:11.262Z,39.56
2023-02-02T12:19:51.839Z,39.27
2023-02-02T12:22:46.144Z,38.96
2023-02-02T12:25:16.978Z,38.65
2023-02-02T12:27:53.929Z,38.68
2023-02-02T12:31:06.322Z,38.52
2023-02-02T12:34:18.778Z,37.99
2023-02-02T12:37:04.657Z,37.97
2023-02-02T12:40:04.331Z,38.34
2023-02-02T12:42:55.042Z,38.22
2023-02-02T12:45:51.370Z,37.94
2023-02-02T12:48:44.610Z,37.91
2023-02-02T12:51:33.149Z,37.48
2023-02-02T12:54:32.930Z,37.42
2023-02-02T12:57:14.211Z,37.00
2023-02-02T12:59:52.109Z,37.01
2023-02-02T13:02:40.251Z,37.26
2023-02-02T13:05:20.955Z,37.23
2023-02-02T13:08:10.699Z,37.28
2023-02-02T13:10:47.429Z,36.98
2023-02-02T13:13:35.387Z,37.17
2023-02-02T13:16:12.732Z,37.15
2023-02-02T13:18:49.207Z,37.07
2023-02-02T13:21:23.175Z,37.05
2023-02-02T13:24:06.076Z,37.05
2023-02-02T13:26:41.374Z,37.10
2023-02-02T13:29:47.579Z,36.94
2023-02-02T13:32:22.322Z,36.79
2023-02-02T13:34:57.751Z,36.61
2023-02-02T13:38:05.883Z,36.55
2023-02-02T13:40:41.079Z,36.22
2023-02-02T13:43:30.854Z,36.30
2023-02-02T13:46:31.016Z,36.09
2023-02-02T13:49:18.964Z,35.93
2023-02-02T13:51:56.433Z,35.66
2023-02-02T13:55:18.819Z,35.41
2023-02-02T13:58:07.400Z,35.31
2023-02-02T14:00:48.518Z,35.13
2023-02-02T14:03:42.485Z,35.13
2023-02-02T14:06:23.230Z,35.03
2023-02-02T14:08:55.661Z,34.99
2023-02-02T14:11:32.134Z,35.03
2023-02-02T14:14:39.555Z,34.90
2023-02-02T14:17:14.467Z,34.81
2023-02-02T14:19:55.594Z,34.81
2023-02-02T14:22:45.282Z,34.79
2023-02-02T14:25:40.620Z,34.46
2023-02-02T14:28:12.715Z,33.88
2023-02-02T14:30:42.499Z,33.65
2023-02-02T14:33:28.387Z,33.26
2023-02-02T14:36:02.047Z,32.86
2023-02-02T14:38:54.646Z,32.77
2023-02-02T14:42:02.238Z,32.11
2023-02-02T14:44:31.974Z,31.88
2023-02-02T14:47:06.049Z,31.87
2023-02-02T14:49:36.976Z,31.61
2023-02-02T14:52:24.216Z,31.29
2023-02-02T14:54:54.298Z,30.97
2023-02-02T14:57:29.461Z,30.93
2023-02-02T15:00:01.317Z,30.67
2023-02-02T15:02:35.711Z,29.96
2023-02-02T15:05:32.102Z,29.22
2023-02-02T15:08:30.156Z,27.91
2023-02-02T15:11:02.802Z,26.60
2023-02-02T15:13:38.177Z,25.79
2023-02-02T15:16:20.490Z,24.94
2023-02-02T15:19:16.009Z,23.89
2023-02-02T15:21:50.724Z,23.06
2023-02-02T15:24:28.117Z,22.50
2023-02-02T15:27:00.635Z,21.99
2023-02-02T15:29:45.032Z,21.51
2023-02-02T15:32:23.307Z,20.89
2023-02-02T15:35:04.818Z,20.47
2023-02-02T15:37:43.301Z,20.03
2023-02-02T15:40:23.095Z,19.69
2023-02-02T15:43:08.551Z,19.39
2023-02-02T15:45:53.524Z,19.03
2023-02-02T15:48:33.104Z,18.88
2023-02-02T15:51:08.441Z,19.04
2023-02-02T15:53:46.255Z,19.33
2023-02-02T15:56:32.792Z,19.51
2023-02-02T15:59:03.223Z,19.57
2023-02-02T16:01:47.882Z,19.61
2023-02-02T16:04:35.527Z,19.53
2023-02-02T16:07:07.911Z,19.30
2023-02-02T16:09:42.047Z,18.99
2023-02-02T16:12:21.197Z,18.50
2023-02-02T16:14:55.435Z,18.00
2023-02-02T16:17:36.182Z,17.63
2023-02-02T16:20:18.315Z,17.20
2023-02-02T16:22:48.869Z,16.80
2023-02-02T16:25:22.337Z,16.52
2023-02-02T16:27:54.194Z,16.22
2023-02-02T16:30:38.019Z,15.94
2023-02-02T16:33:40.753Z,15.63
2023-02-02T16:36:26.795Z,15.25
2023-02-02T16:38:58.477Z,15.01
2023-02-02T16:41:36.441Z,14.82
2023-02-02T16:44:40.787Z,14.55
2023-02-02T16:47:28.824Z,14.26
2023-02-02T16:50:11.558Z,14.03
2023-02-02T16:53:05.824Z,13.72
2023-02-02T16:55:50.167Z,13.56
2023-02-02T16:58:23.709Z,13.48
2023-02-02T17:01:22.558Z,13.38
2023-02-02T17:03:56.300Z,13.23
2023-02-02T17:06:51.766Z,13.12
2023-02-02T17:09:34.047Z,12.92
2023-02-02T17:12:32.591Z,12.76
2023-02-02T17:15:23.090Z,12.58
2023-02-02T17:17:54.128Z,12.45
2023-02-02T17:20:24.153Z,12.43
2023-02-02T17:23:07.522Z,12.36
2023-02-02T17:25:45.397Z,12.25
2023-02-02T17:28:21.772Z,12.19
2023-02-02T17:31:00.840Z,12.09
2023-02-02T17:33:36.600Z,12.01
2023-02-02T17:36:07.543Z,11.89
2023-02-02T17:38:39.046Z,11.78
2023-02-02T17:41:15.182Z,11.71
2023-02-02T17:43:45.612Z,11.61
2023-02-02T17:46:15.214Z,11.50
2023-02-02T17:48:44.708Z,11.43
2023-02-02T17:51:17.872Z,11.38
2023-02-02T17:53:48.090Z,11.32
2023-02-02T17:56:18.571Z,11.24
2023-02-02T17:58:49.321Z,11.05
2023-02-02T18:01:19.745Z,10.89
2023-02-02T18:03:49.968Z,10.76
2023-02-02T18:06:19.520Z,10.64
2023-02-02T18:08:50.072Z,10.54
2023-02-02T18:11:19.613Z,10.49
2023-02-02T18:13:49.637Z,10.47
2023-02-02T18:16:21.052Z,10.44
2023-02-02T18:18:51.137Z,10.42
2023-02-02T18:21:22.362Z,10.39
2023-02-02T18:23:51.937Z,10.36
2023-02-02T18:26:23.120Z,10.31
2023-02-02T18:28:54.727Z,10.18
2023-02-02T18:31:25.227Z,10.00
2023-02-02T18:33:54.956Z,9.75
2023-02-02T18:36:25.570Z,9.63
2023-02-02T18:38:56.651Z,9.55
2023-02-02T18:41:27.421Z,9.51
2023-02-02T18:43:57.454Z,9.47
2023-02-02T18:46:28.167Z,9.38
2023-02-02T18:48:58.734Z,9.32
2023-02-02T18:51:28.650Z,9.29
2023-02-02T18:54:01.667Z,9.26
2023-02-02T18:56:31.515Z,9.21
2023-02-02T18:59:02.965Z,9.29
2023-02-02T19:01:34.721Z,9.35
2023-02-02T19:04:05.498Z,9.28
2023-02-02T19:07:01.150Z,9.12
2023-02-02T19:09:31.042Z,8.79
2023-02-02T19:12:03.097Z,8.71
2023-02-02T19:14:39.115Z,8.66
2023-02-02T19:17:30.791Z,8.65
2023-02-02T19:20:10.579Z,8.69
2023-02-02T19:22:40.170Z,8.77
2023-02-02T19:25:14.510Z,8.82
2023-02-02T19:27:44.599Z,8.82
2023-02-02T19:30:22.091Z,8.82
2023-02-02T19:32:52.178Z,8.75
2023-02-02T19:35:25.925Z,8.71
2023-02-02T19:38:01.897Z,8.74
2023-02-02T19:40:31.358Z,8.75
2023-02-02T19:43:28.918Z,8.70
2023-02-02T19:46:02.077Z,8.56
2023-02-02T19:48:36.090Z,8.45
2023-02-02T19:51:44.927Z,8.42
2023-02-02T19:54:43.022Z,8.43
2023-02-02T19:57:41.800Z,8.47
2023-02-02T20:00:30.701Z,8.39
2023-02-02T20:03:07.951Z,8.23
2023-02-02T20:05:45.262Z,7.98
2023-02-02T20:08:38.949Z,7.78
2023-02-02T20:11:36.842Z,7.59
2023-02-02T20:14:36.393Z,7.53
2023-02-02T20:17:27.776Z,7.42
2023-02-02T20:20:00.453Z,7.49
2023-02-02T20:22:31.058Z,7.54
2023-02-02T20:25:07.209Z,7.60
2023-02-02T20:27:38.859Z,7.55
2023-02-02T20:30:28.874Z,7.43
2023-02-02T20:33:03.935Z,7.21
2023-02-02T20:35:39.843Z,7.05
2023-02-02T20:38:28.749Z,6.93
2023-02-02T20:41:00.039Z,6.86
2023-02-02T20:43:30.891Z,6.84
2023-02-02T20:46:00.654Z,6.84
2023-02-02T20:48:31.168Z,6.76
2023-02-02T20:51:02.816Z,6.63
2023-02-02T20:53:33.042Z,6.55
2023-02-02T20:56:03.374Z,6.45
2023-02-02T20:58:32.933Z,6.40
2023-02-02T21:01:05.890Z,6.38
2023-02-02T21:03:34.993Z,6.37
2023-02-02T21:06:04.172Z,6.40
2023-02-02T21:08:33.793Z,6.55
2023-02-02T21:11:02.538Z,6.73
2023-02-02T21:13:31.460Z,6.71
2023-02-02T21:16:00.807Z,6.65
2023-02-02T21:18:30.147Z,6.57
2023-02-02T21:20:59.226Z,6.51
2023-02-02T21:23:29.584Z,6.52
2023-02-02T21:25:59.106Z,6.48
2023-02-02T21:28:31.603Z,6.37
2023-02-02T21:31:03.296Z,6.31
2023-02-02T21:33:32.694Z,6.28
2023-02-02T21:36:11.097Z,6.31
2023-02-02T21:38:41.065Z,6.27
2023-02-02T21:41:16.439Z,6.23
2023-02-02T21:43:45.886Z,6.10
2023-02-02T21:46:21.383Z,6.04
2023-02-02T21:48:51.106Z,6.07
2023-02-02T21:51:25.322Z,6.14
2023-02-02T21:53:54.533Z,6.18
2023-02-02T21:56:33.849Z,6.26
2023-02-02T21:59:14.601Z,6.28
2023-02-02T22:01:45.216Z,6.34
2023-02-02T22:04:29.580Z,6.36
2023-02-02T22:07:16.937Z,6.38
2023-02-02T22:09:49.128Z,6.41
2023-02-02T22:12:24.099Z,6.37
2023-02-02T22:14:59.994Z,6.24
2023-02-02T22:17:40.709Z,6.09
2023-02-02T22:20:15.793Z,6.03
2023-02-02T22:22:47.681Z,6.06
2023-02-02T22:25:16.914Z,6.11
2023-02-02T22:27:56.051Z,6.12
2023-02-02T22:30:37.364Z,5.91
2023-02-02T22:33:08.915Z,5.61
2023-02-02T22:35:38.591Z,5.42
2023-02-02T22:38:08.725Z,5.35
2023-02-02T22:40:38.625Z,5.30
2023-02-02T22:43:08.855Z,5.31
2023-02-02T22:45:38.322Z,5.35
2023-02-02T22:48:07.806Z,5.35
2023-02-02T22:50:37.058Z,5.33
2023-02-02T22:53:07.085Z,5.31
2023-02-02T22:55:36.507Z,5.33
2023-02-02T22:58:05.793Z,5.36
2023-02-02T23:00:36.235Z,5.36
2023-02-02T23:03:06.559Z,5.35
2023-02-02T23:05:35.888Z,5.32
2023-02-02T23:08:06.290Z,5.28
2023-02-02T23:10:36.631Z,5.16
2023-02-02T23:13:06.532Z,5.03
2023-02-02T23:15:35.883Z,4.96
2023-02-02T23:18:05.356Z,4.94
2023-02-02T23:20:34.319Z,4.96
2023-02-02T23:23:03.029Z,4.98
2023-02-02T23:25:33.563Z,4.94
2023-02-02T23:28:03.951Z,4.88
2023-02-02T23:30:33.316Z,4.92
2023-02-02T23:33:02.264Z,5.00
2023-02-02T23:35:30.931Z,5.08
2023-02-02T23:37:59.882Z,5.05
2023-02-02T23:40:29.491Z,4.95
2023-02-02T23:42:59.559Z,4.85
2023-02-02T23:45:28.632Z,4.79
2023-02-02T23:47:58.704Z,4.80
2023-02-02T23:50:29.204Z,4.77
2023-02-02T23:52:58.461Z,4.73
2023-02-02T23:55:28.294Z,4.64
2023-02-02T23:57:58.537Z,4.59
